sensor_id;sensor_type;location;lat;lon;timestamp;pressure;altitude;pressure_sealevel;temperature;humidity
77879;BME280;67071;51.144;17.050;2023-02-28T12:39:39;101808.07;;;15.15;29.77
77879;BME280;67071;51.144;17.050;2023-02-28T12:42:59;101805.70;;;15.34;28.65
77879;BME280;67071;51.144;17.050;2023-02-28T12:53:25;101796.95;;;17.09;28.05
77879;BME280;67071;51.144;17.050;2023-02-28T13:00:20;101790.67;;;18.40;27.07
77879;BME280;67071;51.144;17.050;2023-02-28T13:10:45;101790.84;;;18.94;25.75
77879;BME280;67071;51.144;17.050;2023-02-28T13:17:40;101793.70;;;19.64;25.31
77879;BME280;67071;51.144;17.050;2023-02-28T13:20:56;101789.16;;;20.01;24.66
77879;BME280;67071;51.144;17.050;2023-02-28T13:27:50;101791.62;;;20.67;29.21
77879;BME280;67071;51.144;17.050;2023-02-28T13:31:18;101791.36;;;21.05;30.43
77879;BME280;67071;51.144;17.050;2023-02-28T13:38:15;101790.49;;;20.98;30.61
77879;BME280;67071;51.144;17.050;2023-02-28T13:41:41;101780.34;;;20.82;31.66
77879;BME280;67071;51.144;17.050;2023-02-28T13:45:23;101779.73;;;20.55;31.35
77879;BME280;67071;51.144;17.050;2023-02-28T13:48:40;101779.53;;;20.36;32.45
77879;BME280;67071;51.144;17.050;2023-02-28T13:52:18;101777.20;;;20.17;30.31
77879;BME280;67071;51.144;17.050;2023-02-28T13:59:26;101768.68;;;19.72;32.33
77879;BME280;67071;51.144;17.050;2023-02-28T14:06:33;101754.58;;;19.39;33.75
77879;BME280;67071;51.144;17.050;2023-02-28T14:10:00;101752.27;;;19.13;31.99
77879;BME280;67071;51.144;17.050;2023-02-28T14:16:46;101749.23;;;18.79;33.59
77879;BME280;67071;51.144;17.050;2023-02-28T14:20:16;101741.63;;;18.59;33.53
77879;BME280;67071;51.144;17.050;2023-02-28T14:27:21;101744.94;;;18.71;33.59
77879;BME280;67071;51.144;17.050;2023-02-28T14:37:33;101749.72;;;18.74;33.67
77879;BME280;67071;51.144;17.050;2023-02-28T14:40:56;101745.61;;;18.74;33.69
77879;BME280;67071;51.144;17.050;2023-02-28T14:44:21;101739.91;;;18.66;34.34
77879;BME280;67071;51.144;17.050;2023-02-28T14:47:36;101740.58;;;18.55;35.21
77879;BME280;67071;51.144;17.050;2023-02-28T14:50:57;101732.05;;;18.95;28.87
77879;BME280;67071;51.144;17.050;2023-02-28T14:54:18;101730.81;;;20.08;27.13
77879;BME280;67071;51.144;17.050;2023-02-28T14:57:41;101728.69;;;21.01;24.83
77879;BME280;67071;51.144;17.050;2023-02-28T15:01:04;101727.38;;;21.72;24.85
77879;BME280;67071;51.144;17.050;2023-02-28T15:04:27;101732.73;;;22.24;23.83
77879;BME280;67071;51.144;17.050;2023-02-28T15:11:27;101730.69;;;23.04;23.01
77879;BME280;67071;51.144;17.050;2023-02-28T15:14:46;101736.58;;;23.11;22.36
77879;BME280;67071;51.144;17.050;2023-02-28T15:18:03;101743.52;;;23.20;22.54
77879;BME280;67071;51.144;17.050;2023-02-28T15:21:38;101738.53;;;23.11;21.73
77879;BME280;67071;51.144;17.050;2023-02-28T15:24:53;101730.33;;;22.88;21.65
77879;BME280;67071;51.144;17.050;2023-02-28T15:28:14;101731.57;;;22.74;21.49
77879;BME280;67071;51.144;17.050;2023-02-28T15:31:39;101729.17;;;22.50;21.55
77879;BME280;67071;51.144;17.050;2023-02-28T15:34:58;101728.37;;;22.43;21.66
77879;BME280;67071;51.144;17.050;2023-02-28T15:38:33;101730.83;;;22.14;21.93
77879;BME280;67071;51.144;17.050;2023-02-28T15:41:51;101716.68;;;21.64;22.51
77879;BME280;67071;51.144;17.050;2023-02-28T15:45:27;101728.50;;;20.47;23.09
77879;BME280;67071;51.144;17.050;2023-02-28T15:48:54;101730.93;;;19.26;24.19
77879;BME280;67071;51.144;17.050;2023-02-28T15:52:15;101727.05;;;18.18;25.07
77879;BME280;67071;51.144;17.050;2023-02-28T15:55:33;101728.95;;;17.18;25.53
77879;BME280;67071;51.144;17.050;2023-02-28T15:59:02;101721.66;;;16.39;26.50
77879;BME280;67071;51.144;17.050;2023-02-28T16:05:43;101731.29;;;14.78;27.82
77879;BME280;67071;51.144;17.050;2023-02-28T16:09:16;101731.07;;;13.91;28.61
77879;BME280;67071;51.144;17.050;2023-02-28T16:12:35;101732.41;;;13.08;29.32
77879;BME280;67071;51.144;17.050;2023-02-28T16:15:56;101728.86;;;12.06;30.54
77879;BME280;67071;51.144;17.050;2023-02-28T16:19:12;101728.61;;;10.98;31.95
77879;BME280;67071;51.144;17.050;2023-02-28T16:22:29;101738.60;;;9.97;32.85
77879;BME280;67071;51.144;17.050;2023-02-28T16:26:05;101738.06;;;8.97;34.08
77879;BME280;67071;51.144;17.050;2023-02-28T16:29:29;101742.95;;;8.15;35.44
77879;BME280;67071;51.144;17.050;2023-02-28T16:32:46;101741.94;;;7.41;36.40
77879;BME280;67071;51.144;17.050;2023-02-28T16:36:23;101748.02;;;6.73;38.13
77879;BME280;67071;51.144;17.050;2023-02-28T16:39:47;101747.63;;;6.08;38.95
77879;BME280;67071;51.144;17.050;2023-02-28T16:43:11;101748.78;;;5.57;39.36
77879;BME280;67071;51.144;17.050;2023-02-28T16:46:35;101750.53;;;5.10;40.72
77879;BME280;67071;51.144;17.050;2023-02-28T16:49:54;101753.86;;;4.72;41.62
77879;BME280;67071;51.144;17.050;2023-02-28T16:53:13;101753.95;;;4.37;42.00
77879;BME280;67071;51.144;17.050;2023-02-28T16:56:30;101756.18;;;4.05;43.95
77879;BME280;67071;51.144;17.050;2023-02-28T16:59:47;101758.52;;;3.77;44.01
77879;BME280;67071;51.144;17.050;2023-02-28T17:06:40;101761.95;;;3.21;45.18
77879;BME280;67071;51.144;17.050;2023-02-28T17:10:26;101763.65;;;2.90;45.70
77879;BME280;67071;51.144;17.050;2023-02-28T17:13:42;101766.02;;;2.67;46.62
77879;BME280;67071;51.144;17.050;2023-02-28T17:17:01;101773.95;;;2.46;47.04
77879;BME280;67071;51.144;17.050;2023-02-28T17:20:30;101770.41;;;2.23;47.38
77879;BME280;67071;51.144;17.050;2023-02-28T17:23:47;101777.28;;;2.03;49.02
77879;BME280;67071;51.144;17.050;2023-02-28T17:32:49;101777.39;;;1.61;50.03
77879;BME280;67071;51.144;17.050;2023-02-28T17:39:25;101767.02;;;1.36;50.33
77879;BME280;67071;51.144;17.050;2023-02-28T17:42:49;101768.25;;;1.25;51.17
